sensor_id;sensor_type;location;lat;lon;timestamp;P1;durP1;ratioP1;P2;durP2;ratioP2
52180;SDS011;38158;53.338;6.514;2022-11-15T00:00:50;34.50;;;20.85;;
52180;SDS011;38158;53.338;6.514;2022-11-15T00:03:17;34.55;;;22.38;;
52180;SDS011;38158;53.338;6.514;2022-11-15T00:05:44;32.35;;;20.38;;
52180;SDS011;38158;53.338;6.514;2022-11-15T00:08:10;33.83;;;21.15;;
52180;SDS011;38158;53.338;6.514;2022-11-15T00:10:36;30.88;;;20.98;;
52180;SDS011;38158;53.338;6.514;2022-11-15T00:13:06;32.97;;;21.08;;
52180;SDS011;38158;53.338;6.514;2022-11-15T00:15:38;35.70;;;22.02;;
52180;SDS011;38158;53.338;6.514;2022-11-15T00:18:06;32.65;;;20.90;;
52180;SDS011;38158;53.338;6.514;2022-11-15T00:20:36;33.17;;;20.65;;
52180;SDS011;38158;53.338;6.514;2022-11-15T00:23:05;30.13;;;20.75;;
52180;SDS011;38158;53.338;6.514;2022-11-15T00:25:31;37.47;;;20.70;;
52180;SDS011;38158;53.338;6.514;2022-11-15T00:27:57;33.28;;;21.00;;
52180;SDS011;38158;53.338;6.514;2022-11-15T00:32:50;35.65;;;20.50;;
52180;SDS011;38158;53.338;6.514;2022-11-15T00:35:16;31.20;;;20.05;;
52180;SDS011;38158;53.338;6.514;2022-11-15T00:37:42;35.20;;;20.35;;
52180;SDS011;38158;53.338;6.514;2022-11-15T00:40:08;34.58;;;21.85;;
52180;SDS011;38158;53.338;6.514;2022-11-15T00:42:34;34.17;;;21.13;;
52180;SDS011;38158;53.338;6.514;2022-11-15T00:45:00;33.47;;;21.95;;
52180;SDS011;38158;53.338;6.514;2022-11-15T00:47:26;32.88;;;21.13;;
52180;SDS011;38158;53.338;6.514;2022-11-15T00:49:51;30.88;;;20.98;;
52180;SDS011;38158;53.338;6.514;2022-11-15T00:52:17;32.20;;;20.65;;
52180;SDS011;38158;53.338;6.514;2022-11-15T00:54:42;36.63;;;23.13;;
52180;SDS011;38158;53.338;6.514;2022-11-15T00:57:08;32.80;;;20.98;;
52180;SDS011;38158;53.338;6.514;2022-11-15T00:59:34;32.28;;;21.08;;
52180;SDS011;38158;53.338;6.514;2022-11-15T01:01:59;35.95;;;21.38;;
52180;SDS011;38158;53.338;6.514;2022-11-15T01:04:26;38.08;;;23.35;;
52180;SDS011;38158;53.338;6.514;2022-11-15T01:06:51;34.50;;;21.65;;
52180;SDS011;38158;53.338;6.514;2022-11-15T01:09:17;34.92;;;21.50;;
52180;SDS011;38158;53.338;6.514;2022-11-15T01:11:43;31.88;;;20.98;;
52180;SDS011;38158;53.338;6.514;2022-11-15T01:14:08;31.85;;;20.90;;
52180;SDS011;38158;53.338;6.514;2022-11-15T01:16:34;33.50;;;21.67;;
52180;SDS011;38158;53.338;6.514;2022-11-15T01:19:00;35.28;;;22.02;;
52180;SDS011;38158;53.338;6.514;2022-11-15T01:21:26;33.72;;;21.08;;
52180;SDS011;38158;53.338;6.514;2022-11-15T01:23:55;34.38;;;20.77;;
52180;SDS011;38158;53.338;6.514;2022-11-15T01:26:21;35.28;;;22.02;;
52180;SDS011;38158;53.338;6.514;2022-11-15T01:28:48;33.25;;;21.52;;
52180;SDS011;38158;53.338;6.514;2022-11-15T01:31:15;32.38;;;21.15;;
52180;SDS011;38158;53.338;6.514;2022-11-15T01:33:44;32.42;;;21.98;;
52180;SDS011;38158;53.338;6.514;2022-11-15T01:36:12;34.08;;;20.05;;
52180;SDS011;38158;53.338;6.514;2022-11-15T01:38:39;34.55;;;21.40;;
52180;SDS011;38158;53.338;6.514;2022-11-15T01:41:05;33.60;;;22.02;;
52180;SDS011;38158;53.338;6.514;2022-11-15T01:43:32;34.78;;;21.58;;
52180;SDS011;38158;53.338;6.514;2022-11-15T01:46:08;33.58;;;20.80;;
52180;SDS011;38158;53.338;6.514;2022-11-15T01:48:46;31.65;;;21.25;;
52180;SDS011;38158;53.338;6.514;2022-11-15T01:51:13;32.33;;;21.20;;
52180;SDS011;38158;53.338;6.514;2022-11-15T01:53:42;30.92;;;19.67;;
52180;SDS011;38158;53.338;6.514;2022-11-15T01:56:11;31.63;;;21.27;;
52180;SDS011;38158;53.338;6.514;2022-11-15T01:58:41;33.50;;;20.50;;
52180;SDS011;38158;53.338;6.514;2022-11-15T02:01:09;31.48;;;20.85;;
52180;SDS011;38158;53.338;6.514;2022-11-15T02:03:52;31.50;;;20.98;;
52180;SDS011;38158;53.338;6.514;2022-11-15T02:06:23;34.28;;;21.70;;
52180;SDS011;38158;53.338;6.514;2022-11-15T02:08:49;36.08;;;22.25;;
52180;SDS011;38158;53.338;6.514;2022-11-15T02:11:15;34.30;;;22.73;;
52180;SDS011;38158;53.338;6.514;2022-11-15T02:13:41;37.03;;;23.05;;
52180;SDS011;38158;53.338;6.514;2022-11-15T02:16:11;35.03;;;21.95;;
52180;SDS011;38158;53.338;6.514;2022-11-15T02:21:43;36.28;;;22.52;;
52180;SDS011;38158;53.338;6.514;2022-11-15T02:40:53;38.00;;;22.23;;
52180;SDS011;38158;53.338;6.514;2022-11-15T02:43:29;32.30;;;22.08;;
52180;SDS011;38158;53.338;6.514;2022-11-15T02:46:36;33.35;;;21.90;;
52180;SDS011;38158;53.338;6.514;2022-11-15T02:49:32;34.67;;;21.80;;
52180;SDS011;38158;53.338;6.514;2022-11-15T02:51:59;31.10;;;21.27;;
52180;SDS011;38158;53.338;6.514;2022-11-15T02:54:26;29.17;;;18.67;;
52180;SDS011;38158;53.338;6.514;2022-11-15T02:56:56;31.90;;;20.85;;
52180;SDS011;38158;53.338;6.514;2022-11-15T03:04:37;32.25;;;19.45;;
52180;SDS011;38158;53.338;6.514;2022-11-15T03:07:29;30.27;;;19.30;;
52180;SDS011;38158;53.338;6.514;2022-11-15T03:10:09;29.87;;;19.60;;
52180;SDS011;38158;53.338;6.514;2022-11-15T03:12:48;33.75;;;19.98;;
52180;SDS011;38158;53.338;6.514;2022-11-15T03:15:25;32.70;;;19.88;;
52180;SDS011;38158;53.338;6.514;2022-11-15T03:17:59;33.88;;;20.33;;
52180;SDS011;38158;53.338;6.514;2022-11-15T03:20:29;36.70;;;21.35;;
52180;SDS011;38158;53.338;6.514;2022-11-15T03:22:56;39.75;;;21.25;;
52180;SDS011;38158;53.338;6.514;2022-11-15T03:25:28;35.72;;;20.30;;
52180;SDS011;38158;53.338;6.514;2022-11-15T03:27:57;37.58;;;21.10;;
52180;SDS011;38158;53.338;6.514;2022-11-15T03:30:26;40.67;;;21.58;;
52180;SDS011;38158;53.338;6.514;2022-11-15T03:32:56;37.65;;;21.30;;
52180;SDS011;38158;53.338;6.514;2022-11-15T03:35:24;37.15;;;22.05;;
52180;SDS011;38158;53.338;6.514;2022-11-15T03:38:34;38.60;;;22.30;;
52180;SDS011;38158;53.338;6.514;2022-11-15T03:46:26;40.13;;;22.77;;
52180;SDS011;38158;53.338;6.514;2022-11-15T03:49:00;40.75;;;21.55;;
52180;SDS011;38158;53.338;6.514;2022-11-15T03:51:35;42.85;;;22.63;;
52180;SDS011;38158;53.338;6.514;2022-11-15T03:54:02;41.15;;;21.27;;
52180;SDS011;38158;53.338;6.514;2022-11-15T03:56:31;42.28;;;23.70;;
52180;SDS011;38158;53.338;6.514;2022-11-15T03:58:57;40.80;;;21.67;;
52180;SDS011;38158;53.338;6.514;2022-11-15T04:01:22;40.15;;;22.13;;
52180;SDS011;38158;53.338;6.514;2022-11-15T04:03:48;43.40;;;22.92;;
52180;SDS011;38158;53.338;6.514;2022-11-15T04:06:14;43.92;;;23.33;;
52180;SDS011;38158;53.338;6.514;2022-11-15T04:08:40;44.00;;;21.30;;
52180;SDS011;38158;53.338;6.514;2022-11-15T04:11:05;48.58;;;22.55;;
52180;SDS011;38158;53.338;6.514;2022-11-15T04:13:31;44.38;;;21.98;;
52180;SDS011;38158;53.338;6.514;2022-11-15T04:15:57;42.05;;;21.38;;
52180;SDS011;38158;53.338;6.514;2022-11-15T04:18:22;44.78;;;23.13;;
52180;SDS011;38158;53.338;6.514;2022-11-15T04:20:49;43.80;;;22.58;;
52180;SDS011;38158;53.338;6.514;2022-11-15T04:23:33;41.47;;;21.55;;
52180;SDS011;38158;53.338;6.514;2022-11-15T04:26:18;50.17;;;22.85;;
52180;SDS011;38158;53.338;6.514;2022-11-15T04:28:46;42.42;;;22.13;;
52180;SDS011;38158;53.338;6.514;2022-11-15T04:31:31;46.45;;;21.80;;
52180;SDS011;38158;53.338;6.514;2022-11-15T04:33:57;49.88;;;23.27;;
52180;SDS011;38158;53.338;6.514;2022-11-15T04:36:23;46.47;;;22.55;;
52180;SDS011;38158;53.338;6.514;2022-11-15T04:39:07;50.70;;;22.83;;
52180;SDS011;38158;53.338;6.514;2022-11-15T04:41:33;48.35;;;22.83;;
52180;SDS011;38158;53.338;6.514;2022-11-15T04:43:58;50.30;;;23.08;;
52180;SDS011;38158;53.338;6.514;2022-11-15T04:46:24;41.25;;;21.23;;
52180;SDS011;38158;53.338;6.514;2022-11-15T04:48:51;47.58;;;21.83;;
52180;SDS011;38158;53.338;6.514;2022-11-15T04:51:18;47.15;;;23.90;;
52180;SDS011;38158;53.338;6.514;2022-11-15T04:53:43;43.35;;;22.80;;
52180;SDS011;38158;53.338;6.514;2022-11-15T04:56:09;41.15;;;21.42;;
52180;SDS011;38158;53.338;6.514;2022-11-15T04:58:35;44.05;;;21.92;;
52180;SDS011;38158;53.338;6.514;2022-11-15T05:01:08;44.13;;;21.70;;
52180;SDS011;38158;53.338;6.514;2022-11-15T05:03:34;44.97;;;22.38;;
52180;SDS011;38158;53.338;6.514;2022-11-15T05:06:18;44.65;;;23.33;;
52180;SDS011;38158;53.338;6.514;2022-11-15T05:08:44;48.60;;;22.80;;
52180;SDS011;38158;53.338;6.514;2022-11-15T05:11:09;51.97;;;22.35;;
52180;SDS011;38158;53.338;6.514;2022-11-15T05:13:35;43.95;;;23.40;;
52180;SDS011;38158;53.338;6.514;2022-11-15T05:16:00;46.33;;;23.45;;
52180;SDS011;38158;53.338;6.514;2022-11-15T05:18:26;46.00;;;22.35;;
52180;SDS011;38158;53.338;6.514;2022-11-15T05:20:52;43.72;;;22.77;;
52180;SDS011;38158;53.338;6.514;2022-11-15T05:23:17;47.40;;;23.83;;
52180;SDS011;38158;53.338;6.514;2022-11-15T05:25:43;46.97;;;21.30;;
52180;SDS011;38158;53.338;6.514;2022-11-15T05:28:09;48.22;;;23.10;;
52180;SDS011;38158;53.338;6.514;2022-11-15T05:30:34;50.30;;;22.67;;
52180;SDS011;38158;53.338;6.514;2022-11-15T05:33:00;54.80;;;25.00;;
52180;SDS011;38158;53.338;6.514;2022-11-15T05:35:30;55.28;;;24.13;;
52180;SDS011;38158;53.338;6.514;2022-11-15T05:38:00;59.03;;;24.50;;
52180;SDS011;38158;53.338;6.514;2022-11-15T05:40:26;57.55;;;25.35;;
52180;SDS011;38158;53.338;6.514;2022-11-15T05:42:53;57.22;;;25.38;;
52180;SDS011;38158;53.338;6.514;2022-11-15T05:45:19;60.13;;;26.63;;
52180;SDS011;38158;53.338;6.514;2022-11-15T05:47:45;59.72;;;26.98;;
52180;SDS011;38158;53.338;6.514;2022-11-15T05:50:12;68.23;;;27.67;;
52180;SDS011;38158;53.338;6.514;2022-11-15T05:52:40;61.97;;;27.13;;
52180;SDS011;38158;53.338;6.514;2022-11-15T05:55:06;64.57;;;27.05;;
52180;SDS011;38158;53.338;6.514;2022-11-15T05:57:33;72.10;;;28.42;;
52180;SDS011;38158;53.338;6.514;2022-11-15T05:59:59;67.28;;;28.90;;
52180;SDS011;38158;53.338;6.514;2022-11-15T06:02:25;75.57;;;29.40;;
52180;SDS011;38158;53.338;6.514;2022-11-15T06:04:50;75.80;;;30.20;;
52180;SDS011;38158;53.338;6.514;2022-11-15T06:07:16;80.45;;;30.92;;
52180;SDS011;38158;53.338;6.514;2022-11-15T06:09:42;76.35;;;30.75;;
52180;SDS011;38158;53.338;6.514;2022-11-15T06:12:07;65.55;;;29.27;;
52180;SDS011;38158;53.338;6.514;2022-11-15T06:14:33;76.70;;;29.42;;
52180;SDS011;38158;53.338;6.514;2022-11-15T06:16:58;86.38;;;32.50;;
52180;SDS011;38158;53.338;6.514;2022-11-15T06:19:24;71.28;;;31.20;;
52180;SDS011;38158;53.338;6.514;2022-11-15T06:21:50;81.82;;;32.50;;
52180;SDS011;38158;53.338;6.514;2022-11-15T06:24:15;86.18;;;31.13;;
52180;SDS011;38158;53.338;6.514;2022-11-15T06:26:41;86.72;;;32.53;;
52180;SDS011;38158;53.338;6.514;2022-11-15T06:29:07;83.68;;;33.13;;
52180;SDS011;38158;53.338;6.514;2022-11-15T06:31:33;83.78;;;33.13;;
52180;SDS011;38158;53.338;6.514;2022-11-15T06:33:59;93.88;;;32.35;;
52180;SDS011;38158;53.338;6.514;2022-11-15T06:36:25;95.35;;;33.63;;
52180;SDS011;38158;53.338;6.514;2022-11-15T06:38:50;91.03;;;32.90;;
52180;SDS011;38158;53.338;6.514;2022-11-15T06:41:16;104.80;;;35.15;;
52180;SDS011;38158;53.338;6.514;2022-11-15T06:43:42;106.78;;;35.95;;
52180;SDS011;38158;53.338;6.514;2022-11-15T06:46:08;84.32;;;32.42;;
52180;SDS011;38158;53.338;6.514;2022-11-15T06:48:35;94.57;;;33.77;;
52180;SDS011;38158;53.338;6.514;2022-11-15T06:51:01;95.25;;;34.65;;
52180;SDS011;38158;53.338;6.514;2022-11-15T06:53:29;100.80;;;33.30;;
52180;SDS011;38158;53.338;6.514;2022-11-15T06:56:02;103.65;;;37.00;;
52180;SDS011;38158;53.338;6.514;2022-11-15T06:58:29;106.85;;;34.25;;
52180;SDS011;38158;53.338;6.514;2022-11-15T07:01:05;104.53;;;34.80;;
52180;SDS011;38158;53.338;6.514;2022-11-15T07:03:34;109.75;;;35.28;;
52180;SDS011;38158;53.338;6.514;2022-11-15T07:06:01;95.53;;;34.20;;
52180;SDS011;38158;53.338;6.514;2022-11-15T07:08:27;109.95;;;35.67;;
52180;SDS011;38158;53.338;6.514;2022-11-15T07:10:54;100.10;;;36.50;;
52180;SDS011;38158;53.338;6.514;2022-11-15T07:13:25;91.10;;;33.28;;
52180;SDS011;38158;53.338;6.514;2022-11-15T07:15:52;104.50;;;35.53;;
52180;SDS011;38158;53.338;6.514;2022-11-15T07:18:18;109.40;;;35.83;;
52180;SDS011;38158;53.338;6.514;2022-11-15T07:20:44;114.55;;;36.50;;
52180;SDS011;38158;53.338;6.514;2022-11-15T07:23:09;113.70;;;37.75;;
52180;SDS011;38158;53.338;6.514;2022-11-15T07:25:35;107.07;;;38.20;;
52180;SDS011;38158;53.338;6.514;2022-11-15T07:28:01;94.82;;;35.03;;
52180;SDS011;38158;53.338;6.514;2022-11-15T07:30:27;104.28;;;37.38;;
52180;SDS011;38158;53.338;6.514;2022-11-15T07:32:56;96.43;;;34.53;;
52180;SDS011;38158;53.338;6.514;2022-11-15T07:35:24;108.35;;;37.17;;
52180;SDS011;38158;53.338;6.514;2022-11-15T07:38:08;95.05;;;35.97;;
52180;SDS011;38158;53.338;6.514;2022-11-15T07:40:34;101.43;;;38.72;;
52180;SDS011;38158;53.338;6.514;2022-11-15T07:43:00;96.80;;;37.70;;
52180;SDS011;38158;53.338;6.514;2022-11-15T07:45:26;101.43;;;35.60;;
52180;SDS011;38158;53.338;6.514;2022-11-15T07:47:52;106.78;;;37.40;;
52180;SDS011;38158;53.338;6.514;2022-11-15T07:50:19;94.37;;;38.23;;
52180;SDS011;38158;53.338;6.514;2022-11-15T07:52:44;96.43;;;37.03;;
52180;SDS011;38158;53.338;6.514;2022-11-15T07:55:10;86.68;;;36.05;;
52180;SDS011;38158;53.338;6.514;2022-11-15T07:57:36;89.32;;;35.15;;
52180;SDS011;38158;53.338;6.514;2022-11-15T08:00:02;89.63;;;36.88;;
52180;SDS011;38158;53.338;6.514;2022-11-15T08:02:29;93.93;;;36.03;;
52180;SDS011;38158;53.338;6.514;2022-11-15T08:04:55;80.20;;;33.20;;
52180;SDS011;38158;53.338;6.514;2022-11-15T08:07:21;76.45;;;32.92;;
52180;SDS011;38158;53.338;6.514;2022-11-15T08:09:46;83.22;;;34.42;;
52180;SDS011;38158;53.338;6.514;2022-11-15T08:12:12;85.13;;;33.50;;
52180;SDS011;38158;53.338;6.514;2022-11-15T08:14:39;78.32;;;35.63;;
52180;SDS011;38158;53.338;6.514;2022-11-15T08:17:04;77.53;;;35.13;;
52180;SDS011;38158;53.338;6.514;2022-11-15T08:19:30;80.47;;;33.70;;
52180;SDS011;38158;53.338;6.514;2022-11-15T08:21:55;79.78;;;32.83;;
52180;SDS011;38158;53.338;6.514;2022-11-15T08:24:21;69.43;;;32.58;;
52180;SDS011;38158;53.338;6.514;2022-11-15T08:26:47;75.18;;;32.67;;
52180;SDS011;38158;53.338;6.514;2022-11-15T08:29:12;71.05;;;32.15;;
52180;SDS011;38158;53.338;6.514;2022-11-15T08:31:38;60.17;;;29.58;;
52180;SDS011;38158;53.338;6.514;2022-11-15T08:34:04;69.78;;;32.13;;
52180;SDS011;38158;53.338;6.514;2022-11-15T08:36:31;63.63;;;29.75;;
52180;SDS011;38158;53.338;6.514;2022-11-15T08:38:57;60.27;;;28.60;;
52180;SDS011;38158;53.338;6.514;2022-11-15T08:41:40;69.18;;;31.70;;
52180;SDS011;38158;53.338;6.514;2022-11-15T08:44:06;60.00;;;30.00;;
52180;SDS011;38158;53.338;6.514;2022-11-15T08:46:32;57.08;;;29.15;;
52180;SDS011;38158;53.338;6.514;2022-11-15T08:48:57;64.22;;;31.25;;
52180;SDS011;38158;53.338;6.514;2022-11-15T08:51:23;58.33;;;30.13;;
52180;SDS011;38158;53.338;6.514;2022-11-15T08:53:49;58.55;;;30.13;;
52180;SDS011;38158;53.338;6.514;2022-11-15T08:56:14;57.78;;;29.30;;
52180;SDS011;38158;53.338;6.514;2022-11-15T08:58:40;63.58;;;29.83;;
52180;SDS011;38158;53.338;6.514;2022-11-15T09:01:13;54.20;;;28.85;;
52180;SDS011;38158;53.338;6.514;2022-11-15T09:03:40;52.00;;;28.02;;
52180;SDS011;38158;53.338;6.514;2022-11-15T09:06:06;50.85;;;28.67;;
52180;SDS011;38158;53.338;6.514;2022-11-15T09:08:32;41.83;;;23.92;;
52180;SDS011;38158;53.338;6.514;2022-11-15T09:10:58;49.53;;;25.73;;
52180;SDS011;38158;53.338;6.514;2022-11-15T09:13:23;52.25;;;26.83;;
52180;SDS011;38158;53.338;6.514;2022-11-15T09:15:49;48.85;;;26.02;;
52180;SDS011;38158;53.338;6.514;2022-11-15T09:18:15;51.83;;;27.20;;
52180;SDS011;38158;53.338;6.514;2022-11-15T09:20:40;47.90;;;25.48;;
52180;SDS011;38158;53.338;6.514;2022-11-15T09:23:06;42.70;;;24.35;;
52180;SDS011;38158;53.338;6.514;2022-11-15T09:25:32;44.83;;;23.63;;
52180;SDS011;38158;53.338;6.514;2022-11-15T09:27:58;44.58;;;24.35;;
52180;SDS011;38158;53.338;6.514;2022-11-15T09:30:24;38.08;;;23.25;;
52180;SDS011;38158;53.338;6.514;2022-11-15T09:32:50;39.95;;;23.15;;
52180;SDS011;38158;53.338;6.514;2022-11-15T09:35:16;44.25;;;22.90;;
52180;SDS011;38158;53.338;6.514;2022-11-15T09:37:42;39.13;;;22.08;;
52180;SDS011;38158;53.338;6.514;2022-11-15T09:40:11;38.03;;;22.10;;
52180;SDS011;38158;53.338;6.514;2022-11-15T09:45:20;32.88;;;20.80;;
52180;SDS011;38158;53.338;6.514;2022-11-15T09:47:56;41.03;;;22.42;;
52180;SDS011;38158;53.338;6.514;2022-11-15T09:50:47;36.28;;;21.27;;
52180;SDS011;38158;53.338;6.514;2022-11-15T09:53:17;40.65;;;21.15;;
52180;SDS011;38158;53.338;6.514;2022-11-15T09:56:00;33.53;;;20.48;;
52180;SDS011;38158;53.338;6.514;2022-11-15T09:58:44;35.47;;;20.15;;
52180;SDS011;38158;53.338;6.514;2022-11-15T10:01:15;36.75;;;19.85;;
52180;SDS011;38158;53.338;6.514;2022-11-15T10:03:47;34.10;;;19.90;;
52180;SDS011;38158;53.338;6.514;2022-11-15T10:06:23;35.72;;;19.50;;
52180;SDS011;38158;53.338;6.514;2022-11-15T10:11:27;35.55;;;19.50;;
52180;SDS011;38158;53.338;6.514;2022-11-15T10:14:00;33.13;;;20.58;;
52180;SDS011;38158;53.338;6.514;2022-11-15T10:19:07;29.40;;;18.58;;
52180;SDS011;38158;53.338;6.514;2022-11-15T10:24:24;34.13;;;19.25;;
52180;SDS011;38158;53.338;6.514;2022-11-15T10:26:55;34.33;;;18.23;;
52180;SDS011;38158;53.338;6.514;2022-11-15T10:29:22;47.93;;;19.57;;
52180;SDS011;38158;53.338;6.514;2022-11-15T10:31:48;28.23;;;18.05;;
52180;SDS011;38158;53.338;6.514;2022-11-15T10:34:18;32.20;;;17.00;;
52180;SDS011;38158;53.338;6.514;2022-11-15T10:36:46;30.90;;;17.20;;
52180;SDS011;38158;53.338;6.514;2022-11-15T10:39:19;29.00;;;16.85;;
52180;SDS011;38158;53.338;6.514;2022-11-15T10:41:44;27.63;;;15.95;;
52180;SDS011;38158;53.338;6.514;2022-11-15T10:46:46;26.75;;;15.90;;
52180;SDS011;38158;53.338;6.514;2022-11-15T10:51:50;30.27;;;17.17;;
52180;SDS011;38158;53.338;6.514;2022-11-15T10:57:04;26.52;;;16.52;;
52180;SDS011;38158;53.338;6.514;2022-11-15T10:59:33;23.30;;;15.18;;
52180;SDS011;38158;53.338;6.514;2022-11-15T11:02:02;34.47;;;16.65;;
52180;SDS011;38158;53.338;6.514;2022-11-15T11:04:49;23.90;;;15.27;;
52180;SDS011;38158;53.338;6.514;2022-11-15T11:07:20;26.17;;;15.40;;
52180;SDS011;38158;53.338;6.514;2022-11-15T11:09:57;28.25;;;15.88;;
52180;SDS011;38158;53.338;6.514;2022-11-15T11:12:30;29.35;;;16.75;;
52180;SDS011;38158;53.338;6.514;2022-11-15T11:14:58;26.27;;;16.40;;
52180;SDS011;38158;53.338;6.514;2022-11-15T11:20:41;28.65;;;14.73;;
52180;SDS011;38158;53.338;6.514;2022-11-15T11:28:48;25.30;;;15.02;;
52180;SDS011;38158;53.338;6.514;2022-11-15T11:42:44;19.30;;;13.82;;
52180;SDS011;38158;53.338;6.514;2022-11-15T11:45:22;21.05;;;13.73;;
52180;SDS011;38158;53.338;6.514;2022-11-15T11:51:02;22.17;;;13.82;;
52180;SDS011;38158;53.338;6.514;2022-11-15T11:53:41;21.75;;;14.25;;
52180;SDS011;38158;53.338;6.514;2022-11-15T11:56:16;20.95;;;12.82;;
52180;SDS011;38158;53.338;6.514;2022-11-15T11:58:48;21.90;;;13.82;;
52180;SDS011;38158;53.338;6.514;2022-11-15T12:01:20;20.90;;;13.52;;
52180;SDS011;38158;53.338;6.514;2022-11-15T12:09:30;21.80;;;13.48;;
52180;SDS011;38158;53.338;6.514;2022-11-15T12:14:34;17.25;;;12.30;;
52180;SDS011;38158;53.338;6.514;2022-11-15T12:17:04;16.67;;;11.85;;
52180;SDS011;38158;53.338;6.514;2022-11-15T12:19:32;17.88;;;10.90;;
52180;SDS011;38158;53.338;6.514;2022-11-15T12:22:12;17.13;;;10.73;;
52180;SDS011;38158;53.338;6.514;2022-11-15T12:25:08;15.80;;;10.40;;
52180;SDS011;38158;53.338;6.514;2022-11-15T12:27:45;15.85;;;9.77;;
52180;SDS011;38158;53.338;6.514;2022-11-15T12:30:13;14.48;;;9.70;;
52180;SDS011;38158;53.338;6.514;2022-11-15T12:32:51;17.42;;;9.82;;
52180;SDS011;38158;53.338;6.514;2022-11-15T12:38:04;14.52;;;9.35;;
52180;SDS011;38158;53.338;6.514;2022-11-15T12:40:31;13.88;;;8.93;;
52180;SDS011;38158;53.338;6.514;2022-11-15T12:45:51;13.73;;;8.75;;
52180;SDS011;38158;53.338;6.514;2022-11-15T13:01:08;11.65;;;7.68;;
52180;SDS011;38158;53.338;6.514;2022-11-15T13:03:35;9.73;;;4.38;;
52180;SDS011;38158;53.338;6.514;2022-11-15T13:06:42;7.07;;;2.75;;
52180;SDS011;38158;53.338;6.514;2022-11-15T13:12:09;7.65;;;2.83;;
52180;SDS011;38158;53.338;6.514;2022-11-15T13:19:49;8.70;;;3.00;;
52180;SDS011;38158;53.338;6.514;2022-11-15T13:22:24;6.30;;;2.90;;
52180;SDS011;38158;53.338;6.514;2022-11-15T13:30:49;9.73;;;2.63;;
52180;SDS011;38158;53.338;6.514;2022-11-15T13:33:22;7.28;;;2.35;;
52180;SDS011;38158;53.338;6.514;2022-11-15T13:35:51;7.18;;;3.45;;
52180;SDS011;38158;53.338;6.514;2022-11-15T13:40:57;9.25;;;4.47;;
52180;SDS011;38158;53.338;6.514;2022-11-15T13:43:36;9.05;;;4.10;;
52180;SDS011;38158;53.338;6.514;2022-11-15T13:46:10;10.35;;;4.00;;
52180;SDS011;38158;53.338;6.514;2022-11-15T13:48:50;6.70;;;3.67;;
52180;SDS011;38158;53.338;6.514;2022-11-15T13:51:37;8.35;;;3.67;;
52180;SDS011;38158;53.338;6.514;2022-11-15T13:54:09;6.30;;;3.17;;
52180;SDS011;38158;53.338;6.514;2022-11-15T13:56:44;8.88;;;3.40;;
52180;SDS011;38158;53.338;6.514;2022-11-15T13:59:33;6.18;;;3.67;;
52180;SDS011;38158;53.338;6.514;2022-11-15T14:02:03;7.88;;;3.38;;
52180;SDS011;38158;53.338;6.514;2022-11-15T14:04:53;8.80;;;3.83;;
52180;SDS011;38158;53.338;6.514;2022-11-15T14:07:24;8.98;;;3.85;;
52180;SDS011;38158;53.338;6.514;2022-11-15T14:09:51;10.00;;;3.40;;
52180;SDS011;38158;53.338;6.514;2022-11-15T14:14:49;9.88;;;4.00;;
52180;SDS011;38158;53.338;6.514;2022-11-15T14:17:18;7.95;;;3.40;;
52180;SDS011;38158;53.338;6.514;2022-11-15T14:19:46;10.60;;;4.03;;
52180;SDS011;38158;53.338;6.514;2022-11-15T14:24:37;6.45;;;3.90;;
52180;SDS011;38158;53.338;6.514;2022-11-15T14:30:01;9.63;;;3.80;;
52180;SDS011;38158;53.338;6.514;2022-11-15T14:32:29;5.47;;;3.80;;
52180;SDS011;38158;53.338;6.514;2022-11-15T14:35:09;7.22;;;3.92;;
52180;SDS011;38158;53.338;6.514;2022-11-15T14:37:39;6.55;;;3.42;;
52180;SDS011;38158;53.338;6.514;2022-11-15T14:40:05;9.50;;;3.67;;
52180;SDS011;38158;53.338;6.514;2022-11-15T14:42:32;8.10;;;3.90;;
52180;SDS011;38158;53.338;6.514;2022-11-15T14:44:58;7.35;;;3.85;;
52180;SDS011;38158;53.338;6.514;2022-11-15T14:47:24;6.32;;;3.80;;
52180;SDS011;38158;53.338;6.514;2022-11-15T14:49:49;8.23;;;3.88;;
52180;SDS011;38158;53.338;6.514;2022-11-15T14:52:23;6.55;;;3.83;;
52180;SDS011;38158;53.338;6.514;2022-11-15T14:54:53;8.65;;;4.32;;
52180;SDS011;38158;53.338;6.514;2022-11-15T14:57:19;9.88;;;4.50;;
52180;SDS011;38158;53.338;6.514;2022-11-15T14:59:45;8.93;;;3.60;;
52180;SDS011;38158;53.338;6.514;2022-11-15T15:02:18;6.65;;;3.60;;
52180;SDS011;38158;53.338;6.514;2022-11-15T15:04:48;9.13;;;4.00;;
52180;SDS011;38158;53.338;6.514;2022-11-15T15:07:15;6.90;;;4.10;;
52180;SDS011;38158;53.338;6.514;2022-11-15T15:09:41;9.57;;;4.43;;
52180;SDS011;38158;53.338;6.514;2022-11-15T15:12:18;13.30;;;4.15;;
52180;SDS011;38158;53.338;6.514;2022-11-15T15:14:45;10.38;;;4.55;;
52180;SDS011;38158;53.338;6.514;2022-11-15T15:17:12;6.97;;;3.92;;
52180;SDS011;38158;53.338;6.514;2022-11-15T15:19:38;7.93;;;3.80;;
52180;SDS011;38158;53.338;6.514;2022-11-15T15:22:04;12.45;;;3.97;;
52180;SDS011;38158;53.338;6.514;2022-11-15T15:24:30;13.20;;;5.27;;
52180;SDS011;38158;53.338;6.514;2022-11-15T15:26:56;11.80;;;5.45;;
52180;SDS011;38158;53.338;6.514;2022-11-15T15:29:22;9.82;;;5.32;;
52180;SDS011;38158;53.338;6.514;2022-11-15T15:31:47;18.27;;;7.05;;
52180;SDS011;38158;53.338;6.514;2022-11-15T15:34:13;16.25;;;8.38;;
52180;SDS011;38158;53.338;6.514;2022-11-15T15:36:39;16.42;;;8.80;;
52180;SDS011;38158;53.338;6.514;2022-11-15T15:39:04;12.70;;;6.18;;
52180;SDS011;38158;53.338;6.514;2022-11-15T15:41:33;11.93;;;5.95;;
52180;SDS011;38158;53.338;6.514;2022-11-15T15:43:59;10.30;;;4.90;;
52180;SDS011;38158;53.338;6.514;2022-11-15T15:46:24;8.95;;;4.68;;
52180;SDS011;38158;53.338;6.514;2022-11-15T15:48:50;9.82;;;4.57;;
52180;SDS011;38158;53.338;6.514;2022-11-15T15:51:16;8.98;;;4.30;;
52180;SDS011;38158;53.338;6.514;2022-11-15T15:53:41;9.68;;;4.20;;
52180;SDS011;38158;53.338;6.514;2022-11-15T15:56:07;8.80;;;4.25;;
52180;SDS011;38158;53.338;6.514;2022-11-15T15:58:34;8.53;;;4.27;;
52180;SDS011;38158;53.338;6.514;2022-11-15T16:01:00;9.55;;;5.15;;
52180;SDS011;38158;53.338;6.514;2022-11-15T16:03:25;9.65;;;4.72;;
52180;SDS011;38158;53.338;6.514;2022-11-15T16:05:52;7.32;;;4.00;;
52180;SDS011;38158;53.338;6.514;2022-11-15T16:08:22;8.93;;;4.43;;
52180;SDS011;38158;53.338;6.514;2022-11-15T16:10:49;8.10;;;4.38;;
52180;SDS011;38158;53.338;6.514;2022-11-15T16:13:15;8.45;;;4.72;;
52180;SDS011;38158;53.338;6.514;2022-11-15T16:15:41;10.68;;;4.53;;
52180;SDS011;38158;53.338;6.514;2022-11-15T16:18:13;8.45;;;5.03;;
52180;SDS011;38158;53.338;6.514;2022-11-15T16:20:47;8.70;;;4.95;;
52180;SDS011;38158;53.338;6.514;2022-11-15T16:23:21;10.50;;;5.55;;
52180;SDS011;38158;53.338;6.514;2022-11-15T16:25:53;9.40;;;5.75;;
52180;SDS011;38158;53.338;6.514;2022-11-15T16:28:23;10.60;;;5.72;;
52180;SDS011;38158;53.338;6.514;2022-11-15T16:31:12;11.65;;;5.95;;
52180;SDS011;38158;53.338;6.514;2022-11-15T16:33:37;9.52;;;5.57;;
52180;SDS011;38158;53.338;6.514;2022-11-15T16:36:04;8.85;;;5.55;;
52180;SDS011;38158;53.338;6.514;2022-11-15T16:38:31;9.70;;;5.50;;
52180;SDS011;38158;53.338;6.514;2022-11-15T16:40:57;9.23;;;5.60;;
52180;SDS011;38158;53.338;6.514;2022-11-15T16:43:23;9.77;;;5.85;;